Time;durP1;ratioP1;P1;durP2;ratioP2;P2;SDS_P1;SDS_P2;PMS_P1;PMS_P2;Temp;Humidity;BMP_temperature;BMP_pressure;BME280_temperature;BME280_humidity;BME280_pressure;Samples;Min_cycle;Max_cycle;Signal;HPM_P1;HPM_P2
2023/04/27 00:00:59;;;;;;;2.92;1.42;;;;;;;;;;5095531;27;20056;-65
2023/04/27 00:03:30;;;;;;;2.15;1.10;;;;;;;;;;5133501;27;20050;-65
2023/04/27 00:06:00;;;;;;;5.15;1.27;;;;;;;;;;5080155;27;20054;-64
2023/04/27 00:08:30;;;;;;;3.75;1.35;;;;;;;;;;5133340;27;20513;-64
2023/04/27 00:11:01;;;;;;;3.92;1.05;;;;;;;;;;5133278;27;20035;-64
2023/04/27 00:13:31;;;;;;;5.50;1.20;;;;;;;;;;5132247;27;20482;-65
2023/04/27 00:16:02;;;;;;;3.42;1.60;;;;;;;;;;5130307;27;20039;-66
2023/04/27 00:18:32;;;;;;;2.95;1.50;;;;;;;;;;5096584;27;20062;-64
2023/04/27 00:21:03;;;;;;;2.63;1.35;;;;;;;;;;5132416;27;20046;-65
2023/04/27 00:23:33;;;;;;;4.75;1.40;;;;;;;;;;5132151;27;20038;-64
2023/04/27 00:26:03;;;;;;;3.35;1.25;;;;;;;;;;5130038;27;20031;-64
2023/04/27 00:28:33;;;;;;;4.45;1.50;;;;;;;;;;5132292;27;20352;-66
2023/04/27 00:31:04;;;;;;;3.13;1.30;;;;;;;;;;5046025;27;20379;-65
2023/04/27 00:33:35;;;;;;;2.17;1.15;;;;;;;;;;5132745;27;20055;-65
2023/04/27 00:36:06;;;;;;;2.88;1.48;;;;;;;;;;5068879;28;20554;-65
2023/04/27 00:38:39;;;;;;;3.97;1.30;;;;;;;;;;5068415;28;20060;-65
2023/04/27 00:41:10;;;;;;;4.45;1.52;;;;;;;;;;5048397;28;20057;-65
2023/04/27 00:43:45;;;;;;;2.63;1.45;;;;;;;;;;5028802;28;20164;-64
2023/04/27 00:46:18;;;;;;;5.00;1.33;;;;;;;;;;4980044;28;20053;-65
2023/04/27 00:48:48;;;;;;;2.75;1.13;;;;;;;;;;5029104;28;20065;-65
2023/04/27 00:51:19;;;;;;;3.35;1.40;;;;;;;;;;5027984;28;20517;-65
2023/04/27 00:53:52;;;;;;;3.10;1.50;;;;;;;;;;4956875;28;20050;-65
2023/04/27 00:56:22;;;;;;;7.13;1.10;;;;;;;;;;4972827;28;20058;-65
2023/04/27 00:58:53;;;;;;;4.35;1.55;;;;;;;;;;4999845;28;20050;-63
2023/04/27 01:01:23;;;;;;;3.20;1.40;;;;;;;;;;4989040;28;20053;-64
2023/04/27 01:03:55;;;;;;;3.65;1.63;;;;;;;;;;4973589;28;20419;-63
2023/04/27 01:06:28;;;;;;;2.65;1.30;;;;;;;;;;4969565;28;20054;-63
2023/04/27 01:08:59;;;;;;;2.55;1.25;;;;;;;;;;4930624;29;20059;-63
2023/04/27 01:11:29;;;;;;;6.32;1.73;;;;;;;;;;4893286;29;20418;-64
2023/04/27 01:14:05;;;;;;;7.03;1.52;;;;;;;;;;4870542;29;20060;-63
2023/04/27 01:16:36;;;;;;;4.30;1.40;;;;;;;;;;4855844;29;20080;-63
2023/04/27 01:19:07;;;;;;;6.97;1.50;;;;;;;;;;4855717;29;20081;-64
2023/04/27 01:21:37;;;;;;;7.25;1.33;;;;;;;;;;4785783;29;20412;-65
2023/04/27 01:24:08;;;;;;;3.58;1.33;;;;;;;;;;4786389;29;20070;-63
2023/04/27 01:26:38;;;;;;;3.80;1.85;;;;;;;;;;4819587;29;20477;-63
2023/04/27 01:29:08;;;;;;;4.28;1.70;;;;;;;;;;4818923;29;20077;-63
2023/04/27 01:31:38;;;;;;;5.05;1.55;;;;;;;;;;4819478;29;20061;-63
2023/04/27 01:34:08;;;;;;;8.50;1.92;;;;;;;;;;4819025;29;20566;-64
2023/04/27 01:36:39;;;;;;;5.88;1.75;;;;;;;;;;4819613;29;20062;-63
2023/04/27 01:39:09;;;;;;;8.40;2.53;;;;;;;;;;4830449;29;20420;-63
2023/04/27 01:41:42;;;;;;;3.88;2.00;;;;;;;;;;4856181;29;20061;-63
2023/04/27 01:44:12;;;;;;;5.88;1.98;;;;;;;;;;4882057;29;20056;-64
2023/04/27 01:46:42;;;;;;;3.13;1.75;;;;;;;;;;4893060;29;20453;-64
2023/04/27 01:49:13;;;;;;;6.20;2.08;;;;;;;;;;4904036;29;20068;-64
2023/04/27 01:51:44;;;;;;;4.15;2.10;;;;;;;;;;4954712;28;20074;-64
2023/04/27 01:54:15;;;;;;;5.00;1.95;;;;;;;;;;4975726;28;20046;-63
2023/04/27 01:56:47;;;;;;;4.60;1.85;;;;;;;;;;4969094;28;20053;-64
2023/04/27 01:59:18;;;;;;;3.70;1.73;;;;;;;;;;4974689;28;20506;-64
2023/04/27 02:01:48;;;;;;;4.55;1.83;;;;;;;;;;4969092;28;20051;-64
2023/04/27 02:04:18;;;;;;;8.18;2.85;;;;;;;;;;4969323;28;20532;-63
2023/04/27 02:06:48;;;;;;;10.23;1.80;;;;;;;;;;4978913;28;20042;-64
2023/04/27 02:09:18;;;;;;;5.63;1.90;;;;;;;;;;4955861;28;20053;-64
2023/04/27 02:11:48;;;;;;;6.47;2.17;;;;;;;;;;4975212;28;20054;-64
2023/04/27 02:14:18;;;;;;;3.10;1.55;;;;;;;;;;5007984;28;20061;-63
2023/04/27 02:16:48;;;;;;;8.95;3.35;;;;;;;;;;5008053;28;20391;-64
2023/04/27 02:19:18;;;;;;;9.45;2.70;;;;;;;;;;4991486;28;20054;-63
2023/04/27 02:21:48;;;;;;;7.78;3.53;;;;;;;;;;4990598;28;20042;-63
2023/04/27 02:24:18;;;;;;;9.57;3.22;;;;;;;;;;4995458;28;20058;-63
2023/04/27 02:26:49;;;;;;;8.25;2.90;;;;;;;;;;5011632;28;20552;-63
2023/04/27 02:29:19;;;;;;;6.82;2.60;;;;;;;;;;5011412;28;20053;-63
2023/04/27 02:31:50;;;;;;;5.53;2.70;;;;;;;;;;4972275;28;20050;-63
2023/04/27 02:34:20;;;;;;;10.07;2.47;;;;;;;;;;4972125;28;20511;-63
2023/04/27 02:36:50;;;;;;;5.18;2.40;;;;;;;;;;4949114;28;20074;-63
2023/04/27 02:39:20;;;;;;;5.13;2.50;;;;;;;;;;4933649;29;20059;-63
2023/04/27 02:41:50;;;;;;;5.50;2.67;;;;;;;;;;4933983;29;20071;-63
2023/04/27 02:44:20;;;;;;;5.40;2.70;;;;;;;;;;4942331;28;20070;-64
2023/04/27 02:46:51;;;;;;;7.10;2.88;;;;;;;;;;4952952;28;20051;-63
2023/04/27 02:49:22;;;;;;;6.43;3.05;;;;;;;;;;4961997;28;20102;-63
2023/04/27 02:51:55;;;;;;;6.22;2.60;;;;;;;;;;4933498;28;20044;-64
2023/04/27 02:54:25;;;;;;;7.20;2.83;;;;;;;;;;4902517;29;20056;-65
2023/04/27 02:56:55;;;;;;;6.32;3.47;;;;;;;;;;4933296;29;20137;-63
2023/04/27 02:59:25;;;;;;;7.43;3.00;;;;;;;;;;4917365;29;20058;-64
2023/04/27 03:01:55;;;;;;;7.05;3.10;;;;;;;;;;4898410;29;20461;-63
2023/04/27 03:04:26;;;;;;;13.60;4.10;;;;;;;;;;4898373;29;20409;-63
2023/04/27 03:06:56;;;;;;;8.32;3.65;;;;;;;;;;4923460;29;20055;-65
2023/04/27 03:09:26;;;;;;;7.38;3.55;;;;;;;;;;4930637;29;20059;-63
2023/04/27 03:11:57;;;;;;;12.43;3.85;;;;;;;;;;4920801;28;20516;-64
2023/04/27 03:14:27;;;;;;;11.00;4.00;;;;;;;;;;4948788;28;20044;-64
2023/04/27 03:16:58;;;;;;;11.18;4.22;;;;;;;;;;4926477;29;20479;-63
2023/04/27 03:19:28;;;;;;;8.70;3.83;;;;;;;;;;4971614;28;20038;-64
2023/04/27 03:21:58;;;;;;;11.77;3.95;;;;;;;;;;4920895;29;20051;-63
2023/04/27 03:24:28;;;;;;;12.95;3.90;;;;;;;;;;4922834;29;20054;-63
2023/04/27 03:26:58;;;;;;;8.65;3.60;;;;;;;;;;4933117;29;20060;-64
2023/04/27 03:29:28;;;;;;;10.60;4.72;;;;;;;;;;4915804;29;20048;-63
2023/04/27 03:31:59;;;;;;;10.05;4.65;;;;;;;;;;4932626;29;20055;-64
2023/04/27 03:34:30;;;;;;;10.10;3.72;;;;;;;;;;4908937;29;20063;-64
2023/04/27 03:37:01;;;;;;;11.95;4.28;;;;;;;;;;4898067;29;20063;-64
2023/04/27 03:39:31;;;;;;;8.00;4.10;;;;;;;;;;4882440;29;20055;-64
2023/04/27 03:42:02;;;;;;;9.00;4.32;;;;;;;;;;4926763;29;20048;-64
2023/04/27 03:44:33;;;;;;;10.52;4.40;;;;;;;;;;4932549;29;20506;-64
2023/04/27 03:47:07;;;;;;;8.93;3.70;;;;;;;;;;4951474;29;20066;-64
2023/04/27 03:49:39;;;;;;;9.77;3.63;;;;;;;;;;4934332;28;20053;-64
2023/04/27 03:52:11;;;;;;;7.90;3.95;;;;;;;;;;4912954;29;20053;-64
2023/04/27 03:54:41;;;;;;;10.05;3.85;;;;;;;;;;4934298;29;20562;-65
2023/04/27 03:57:12;;;;;;;16.55;4.32;;;;;;;;;;4941126;29;20056;-64
2023/04/27 03:59:42;;;;;;;12.30;4.50;;;;;;;;;;4941696;29;20048;-64
2023/04/27 04:02:16;;;;;;;11.30;3.97;;;;;;;;;;4970843;28;20054;-64
2023/04/27 04:04:47;;;;;;;10.25;4.35;;;;;;;;;;4954634;28;20051;-64
2023/04/27 04:07:18;;;;;;;10.10;4.47;;;;;;;;;;4940549;29;20058;-64
2023/04/27 04:09:48;;;;;;;11.13;4.28;;;;;;;;;;4900933;29;20053;-64
2023/04/27 04:12:19;;;;;;;9.68;4.57;;;;;;;;;;4912989;29;20067;-65
2023/04/27 04:14:50;;;;;;;13.05;5.28;;;;;;;;;;4913201;29;20077;-64
2023/04/27 04:17:20;;;;;;;13.68;5.28;;;;;;;;;;4910404;29;20056;-65
2023/04/27 04:19:50;;;;;;;18.65;5.72;;;;;;;;;;4886615;29;20049;-64
2023/04/27 04:22:20;;;;;;;14.88;5.85;;;;;;;;;;4883637;29;20049;-64
2023/04/27 04:24:51;;;;;;;14.93;5.40;;;;;;;;;;4883790;29;20045;-64
2023/04/27 04:27:21;;;;;;;10.75;4.95;;;;;;;;;;4890650;29;20534;-64
2023/04/27 04:29:51;;;;;;;11.75;4.50;;;;;;;;;;4866189;29;20503;-64
2023/04/27 04:32:23;;;;;;;9.32;4.38;;;;;;;;;;4868785;29;20051;-64
2023/04/27 04:34:53;;;;;;;12.07;4.35;;;;;;;;;;4819935;29;20077;-64
2023/04/27 04:37:24;;;;;;;7.93;3.63;;;;;;;;;;4893845;29;20051;-64
2023/04/27 04:39:56;;;;;;;10.07;3.90;;;;;;;;;;4931873;28;20059;-64
2023/04/27 04:42:26;;;;;;;6.70;3.40;;;;;;;;;;4950267;28;20068;-64
2023/04/27 04:44:57;;;;;;;7.80;3.33;;;;;;;;;;4921392;29;20571;-65
2023/04/27 04:47:30;;;;;;;7.00;3.75;;;;;;;;;;4915650;29;20063;-64
2023/04/27 04:50:01;;;;;;;9.13;4.20;;;;;;;;;;4922112;29;20107;-64
2023/04/27 04:52:31;;;;;;;9.50;2.88;;;;;;;;;;4908829;29;20059;-64
2023/04/27 04:55:01;;;;;;;9.48;3.70;;;;;;;;;;4893802;29;20068;-65
2023/04/27 04:57:31;;;;;;;8.13;4.00;;;;;;;;;;4896532;29;20433;-64
2023/04/27 05:00:02;;;;;;;11.05;3.75;;;;;;;;;;4912715;29;20067;-64
2023/04/27 05:02:34;;;;;;;8.68;3.63;;;;;;;;;;4896866;29;20531;-64
2023/04/27 05:05:05;;;;;;;12.32;5.05;;;;;;;;;;4912514;29;20071;-65
2023/04/27 05:07:36;;;;;;;9.82;4.45;;;;;;;;;;4912146;29;20067;-64
2023/04/27 05:10:06;;;;;;;13.65;4.30;;;;;;;;;;4902854;29;20049;-64
2023/04/27 05:12:36;;;;;;;12.73;4.53;;;;;;;;;;4893570;29;20052;-65
2023/04/27 05:15:07;;;;;;;15.35;5.18;;;;;;;;;;4899857;28;20067;-64
2023/04/27 05:17:37;;;;;;;13.93;5.32;;;;;;;;;;4969499;28;20051;-64
2023/04/27 05:20:08;;;;;;;14.90;5.82;;;;;;;;;;4979759;28;20127;-64
2023/04/27 05:22:38;;;;;;;11.85;5.18;;;;;;;;;;4956691;28;20660;-64
2023/04/27 05:25:08;;;;;;;11.90;5.18;;;;;;;;;;4957087;28;20450;-64
2023/04/27 05:27:39;;;;;;;11.57;4.93;;;;;;;;;;5008354;28;20058;-65
2023/04/27 05:30:10;;;;;;;7.82;3.95;;;;;;;;;;5025323;28;20056;-66
2023/04/27 05:32:40;;;;;;;12.40;4.15;;;;;;;;;;5088295;28;20044;-64
2023/04/27 05:35:10;;;;;;;11.75;4.00;;;;;;;;;;5109716;28;20063;-64
2023/04/27 05:37:40;;;;;;;10.23;3.85;;;;;;;;;;5113984;28;20035;-64
2023/04/27 05:40:11;;;;;;;8.15;3.55;;;;;;;;;;5131819;28;20051;-64
2023/04/27 05:42:41;;;;;;;11.00;3.53;;;;;;;;;;5131785;28;20043;-65
2023/04/27 05:45:11;;;;;;;14.43;3.92;;;;;;;;;;5131946;28;20050;-64
2023/04/27 05:47:41;;;;;;;11.10;3.35;;;;;;;;;;5095458;28;20063;-64
2023/04/27 05:50:11;;;;;;;9.98;3.22;;;;;;;;;;5131703;28;20367;-64
2023/04/27 05:52:41;;;;;;;7.72;3.28;;;;;;;;;;5131700;28;20047;-65
2023/04/27 05:55:11;;;;;;;8.40;3.40;;;;;;;;;;5132100;27;20047;-64
2023/04/27 05:57:41;;;;;;;9.73;4.70;;;;;;;;;;5136107;27;20398;-65
2023/04/27 06:00:11;;;;;;;11.77;3.92;;;;;;;;;;5116606;27;20058;-64
2023/04/27 06:02:42;;;;;;;12.60;5.00;;;;;;;;;;5118241;27;20047;-65
2023/04/27 06:05:12;;;;;;;10.43;4.93;;;;;;;;;;5135758;27;20399;-65
2023/04/27 06:07:43;;;;;;;11.13;4.63;;;;;;;;;;5082422;27;20058;-64
2023/04/27 06:10:14;;;;;;;10.38;4.63;;;;;;;;;;5135612;27;20547;-65
2023/04/27 06:12:44;;;;;;;11.55;5.35;;;;;;;;;;5135814;27;20035;-65
2023/04/27 06:15:15;;;;;;;11.82;5.55;;;;;;;;;;5095795;28;20055;-64
2023/04/27 06:17:46;;;;;;;13.48;5.38;;;;;;;;;;5095907;28;20059;-65
2023/04/27 06:20:16;;;;;;;10.43;4.65;;;;;;;;;;5078798;28;20059;-64
2023/04/27 06:22:46;;;;;;;10.35;4.55;;;;;;;;;;5112449;28;20478;-63
2023/04/27 06:25:17;;;;;;;10.13;4.82;;;;;;;;;;5112276;28;20407;-62
2023/04/27 06:27:47;;;;;;;17.48;4.78;;;;;;;;;;5061756;28;20052;-62
2023/04/27 06:30:18;;;;;;;15.05;4.57;;;;;;;;;;5112250;28;20051;-64
2023/04/27 06:32:49;;;;;;;8.85;4.32;;;;;;;;;;5077760;28;20039;-65
2023/04/27 06:35:20;;;;;;;8.88;4.32;;;;;;;;;;5111977;28;20051;-65
2023/04/27 06:37:50;;;;;;;8.75;4.10;;;;;;;;;;5094817;28;20052;-65
2023/04/27 06:40:20;;;;;;;12.60;4.63;;;;;;;;;;5078835;28;20066;-65
2023/04/27 06:42:51;;;;;;;11.85;4.97;;;;;;;;;;5112072;28;20048;-65
2023/04/27 06:45:21;;;;;;;14.00;4.97;;;;;;;;;;5111732;28;20040;-65
2023/04/27 06:47:51;;;;;;;14.02;5.38;;;;;;;;;;5095334;28;20050;-64
2023/04/27 06:50:21;;;;;;;16.77;5.25;;;;;;;;;;5111811;28;20427;-64
2023/04/27 06:52:51;;;;;;;10.32;5.30;;;;;;;;;;5112907;28;20067;-65
2023/04/27 06:55:21;;;;;;;12.57;4.78;;;;;;;;;;5114186;28;20058;-64
2023/04/27 06:57:51;;;;;;;12.63;5.22;;;;;;;;;;5114019;28;20051;-65
2023/04/27 07:00:21;;;;;;;10.25;4.88;;;;;;;;;;5113917;28;20051;-64
2023/04/27 07:02:52;;;;;;;12.88;4.68;;;;;;;;;;5095074;28;20075;-64
2023/04/27 07:05:22;;;;;;;11.93;5.07;;;;;;;;;;5113942;28;20514;-65
2023/04/27 07:07:53;;;;;;;10.55;5.07;;;;;;;;;;5113449;28;20403;-65
2023/04/27 07:10:23;;;;;;;9.43;4.57;;;;;;;;;;5113762;28;20048;-66
2023/04/27 07:12:53;;;;;;;12.35;5.05;;;;;;;;;;5114129;28;20398;-65
2023/04/27 07:15:23;;;;;;;14.02;4.95;;;;;;;;;;5114052;28;20117;-64
2023/04/27 07:17:54;;;;;;;8.98;4.35;;;;;;;;;;5077563;28;20546;-64
2023/04/27 07:20:25;;;;;;;8.80;4.03;;;;;;;;;;5113651;28;20047;-64
2023/04/27 07:22:55;;;;;;;9.40;4.40;;;;;;;;;;5045376;28;20056;-64
2023/04/27 07:25:25;;;;;;;10.90;4.20;;;;;;;;;;5094413;28;20047;-63
2023/04/27 07:27:55;;;;;;;8.15;3.95;;;;;;;;;;5094258;28;20499;-64
2023/04/27 07:30:29;;;;;;;9.35;4.30;;;;;;;;;;5094347;28;20047;-64
2023/04/27 07:32:59;;;;;;;10.45;4.45;;;;;;;;;;5113218;28;20051;-62
2023/04/27 07:35:30;;;;;;;8.50;4.05;;;;;;;;;;5133937;27;20051;-64
2023/04/27 07:38:01;;;;;;;14.52;4.50;;;;;;;;;;5064545;27;20410;-64
2023/04/27 07:40:33;;;;;;;9.02;3.83;;;;;;;;;;5097791;27;20055;-64
2023/04/27 07:43:04;;;;;;;9.07;3.67;;;;;;;;;;5133863;27;20501;-63
2023/04/27 07:45:36;;;;;;;6.82;3.08;;;;;;;;;;5133792;27;20050;-64
2023/04/27 07:48:06;;;;;;;7.93;2.97;;;;;;;;;;5098154;27;20069;-64
2023/04/27 07:50:36;;;;;;;8.35;2.85;;;;;;;;;;5133885;27;20046;-64
2023/04/27 07:53:06;;;;;;;12.57;3.60;;;;;;;;;;5097489;27;20051;-64
2023/04/27 07:55:36;;;;;;;6.97;3.50;;;;;;;;;;5080306;27;20050;-64
2023/04/27 07:58:06;;;;;;;7.22;3.53;;;;;;;;;;5081385;27;20491;-64
2023/04/27 08:00:36;;;;;;;7.95;3.78;;;;;;;;;;5133678;27;20494;-64
2023/04/27 08:03:07;;;;;;;7.78;3.65;;;;;;;;;;5047891;27;20047;-64
2023/04/27 08:05:38;;;;;;;9.15;3.63;;;;;;;;;;5133375;27;20039;-64
2023/04/27 08:08:09;;;;;;;7.50;3.22;;;;;;;;;;5133166;27;20050;-65
2023/04/27 08:10:39;;;;;;;10.30;3.60;;;;;;;;;;5133295;27;20039;-64
2023/04/27 08:13:09;;;;;;;7.53;3.15;;;;;;;;;;5133082;27;20364;-64
2023/04/27 08:15:39;;;;;;;8.30;3.95;;;;;;;;;;5079976;27;20047;-64
2023/04/27 08:18:09;;;;;;;12.38;4.18;;;;;;;;;;5132283;27;20047;-66
2023/04/27 08:20:40;;;;;;;12.88;3.47;;;;;;;;;;5133100;27;20039;-64
2023/04/27 08:23:10;;;;;;;9.20;3.60;;;;;;;;;;5081466;27;20055;-64
2023/04/27 08:25:40;;;;;;;13.48;3.75;;;;;;;;;;5089553;28;20052;-64
2023/04/27 08:28:10;;;;;;;8.07;3.50;;;;;;;;;;5056854;28;20528;-64
2023/04/27 08:30:42;;;;;;;7.50;3.72;;;;;;;;;;5089462;28;20063;-64
2023/04/27 08:33:13;;;;;;;7.35;3.38;;;;;;;;;;5072572;28;20064;-64
2023/04/27 08:35:43;;;;;;;8.98;3.75;;;;;;;;;;5048833;28;20052;-64
2023/04/27 08:38:13;;;;;;;9.63;3.50;;;;;;;;;;5049018;28;20057;-64
2023/04/27 08:40:43;;;;;;;7.88;3.45;;;;;;;;;;5032704;28;20049;-64
2023/04/27 08:43:13;;;;;;;7.25;3.53;;;;;;;;;;4999483;28;20063;-65
2023/04/27 08:45:52;;;;;;;12.35;3.83;;;;;;;;;;4999649;28;20053;-64
2023/04/27 08:48:22;;;;;;;11.55;3.42;;;;;;;;;;5016270;28;20068;-64
2023/04/27 08:50:52;;;;;;;11.77;3.22;;;;;;;;;;5049200;28;20053;-64
2023/04/27 08:53:23;;;;;;;9.95;3.50;;;;;;;;;;5048948;28;20057;-65
2023/04/27 08:55:55;;;;;;;9.60;4.03;;;;;;;;;;5048796;28;20057;-65
2023/04/27 08:58:38;;;;;;;9.50;4.10;;;;;;;;;;5015469;28;20056;-65
2023/04/27 09:01:08;;;;;;;8.95;4.05;;;;;;;;;;5048874;28;20057;-65
2023/04/27 09:03:38;;;;;;;10.48;4.07;;;;;;;;;;5035220;28;20056;-64
2023/04/27 09:06:09;;;;;;;8.93;4.28;;;;;;;;;;5068816;28;20052;-65
2023/04/27 09:08:43;;;;;;;9.70;3.92;;;;;;;;;;5068558;28;20500;-64
2023/04/27 09:11:14;;;;;;;13.13;3.72;;;;;;;;;;5068653;28;20563;-64
2023/04/27 09:13:45;;;;;;;7.72;4.15;;;;;;;;;;5058694;28;20085;-64
2023/04/27 09:16:15;;;;;;;8.98;3.97;;;;;;;;;;5068443;28;20052;-64
2023/04/27 09:18:45;;;;;;;7.82;3.60;;;;;;;;;;5068399;28;20428;-64
2023/04/27 09:21:23;;;;;;;9.50;4.00;;;;;;;;;;5052115;28;20060;-65
2023/04/27 09:23:55;;;;;;;10.48;3.88;;;;;;;;;;5068449;28;20404;-64
2023/04/27 09:26:26;;;;;;;10.75;4.03;;;;;;;;;;5068627;28;20048;-65
2023/04/27 09:28:57;;;;;;;10.70;3.83;;;;;;;;;;5068440;28;20071;-64
2023/04/27 09:31:34;;;;;;;11.90;3.83;;;;;;;;;;5068611;28;20052;-64
2023/04/27 09:34:05;;;;;;;8.77;3.88;;;;;;;;;;4999961;28;20541;-63
2023/04/27 09:36:35;;;;;;;10.65;4.45;;;;;;;;;;5028500;28;20092;-64
2023/04/27 09:39:05;;;;;;;14.45;4.03;;;;;;;;;;5028179;28;20068;-64
2023/04/27 09:41:36;;;;;;;12.13;3.75;;;;;;;;;;4978978;28;20041;-64
2023/04/27 09:44:07;;;;;;;7.90;3.72;;;;;;;;;;5028018;28;20049;-64
2023/04/27 09:46:37;;;;;;;6.88;3.53;;;;;;;;;;5011662;28;20053;-64
2023/04/27 09:49:08;;;;;;;6.90;3.45;;;;;;;;;;5028010;28;20156;-63
2023/04/27 09:51:38;;;;;;;6.57;3.50;;;;;;;;;;5028198;28;20403;-63
2023/04/27 09:54:12;;;;;;;9.65;3.53;;;;;;;;;;5040082;28;20060;-63
2023/04/27 09:57:07;;;;;;;8.00;3.58;;;;;;;;;;5047756;28;20057;-63
2023/04/27 09:59:49;;;;;;;7.80;3.30;;;;;;;;;;5047154;28;20552;-65
2023/04/27 10:02:21;;;;;;;10.05;3.33;;;;;;;;;;5036671;28;20045;-64
2023/04/27 10:05:08;;;;;;;7.63;3.13;;;;;;;;;;5020702;28;20064;-64
2023/04/27 10:07:40;;;;;;;6.18;3.30;;;;;;;;;;5022575;28;20057;-63
2023/04/27 10:10:17;;;;;;;9.55;3.38;;;;;;;;;;5030090;28;20389;-64
2023/04/27 10:13:00;;;;;;;6.55;3.28;;;;;;;;;;5084551;28;20059;-63
2023/04/27 10:15:31;;;;;;;7.60;3.58;;;;;;;;;;5044856;28;20468;-65
2023/04/27 10:18:05;;;;;;;8.88;3.30;;;;;;;;;;5045146;28;20525;-62
2023/04/27 10:20:36;;;;;;;9.45;3.67;;;;;;;;;;5035932;28;20052;-63
2023/04/27 10:23:06;;;;;;;8.20;3.70;;;;;;;;;;4998277;28;20535;-64
2023/04/27 10:25:42;;;;;;;7.13;3.67;;;;;;;;;;5047261;28;20053;-64
2023/04/27 10:28:22;;;;;;;7.35;4.05;;;;;;;;;;5047884;28;20541;-64
2023/04/27 10:30:52;;;;;;;9.15;4.80;;;;;;;;;;5047734;28;20084;-64
2023/04/27 10:33:22;;;;;;;11.98;4.55;;;;;;;;;;5027701;28;20049;-63
2023/04/27 10:35:59;;;;;;;10.27;3.75;;;;;;;;;;5047934;28;20061;-64
2023/04/27 10:38:30;;;;;;;11.32;4.00;;;;;;;;;;5047653;28;20060;-64
2023/04/27 10:41:02;;;;;;;10.88;4.57;;;;;;;;;;5047794;28;20045;-64
2023/04/27 10:43:34;;;;;;;9.02;4.50;;;;;;;;;;5051572;28;20548;-64
2023/04/27 10:46:13;;;;;;;9.60;5.10;;;;;;;;;;4990516;28;20044;-64
2023/04/27 10:48:44;;;;;;;9.10;4.38;;;;;;;;;;5051387;28;20630;-64
2023/04/27 10:51:16;;;;;;;8.25;3.70;;;;;;;;;;4976806;28;20064;-66
2023/04/27 10:53:52;;;;;;;8.80;3.90;;;;;;;;;;5031308;28;20079;-63
2023/04/27 10:56:23;;;;;;;8.98;4.15;;;;;;;;;;5031194;28;20061;-64
2023/04/27 10:58:53;;;;;;;9.38;4.82;;;;;;;;;;4980910;28;20053;-64
2023/04/27 11:01:25;;;;;;;8.60;3.97;;;;;;;;;;4999537;28;20049;-63
2023/04/27 11:03:57;;;;;;;7.90;4.03;;;;;;;;;;5010714;28;20057;-64
2023/04/27 11:06:35;;;;;;;7.93;4.18;;;;;;;;;;4977565;28;20583;-64
2023/04/27 11:09:05;;;;;;;10.60;4.75;;;;;;;;;;5007430;28;20061;-64
2023/04/27 11:11:35;;;;;;;11.95;4.63;;;;;;;;;;4989283;28;20545;-64
2023/04/27 11:14:06;;;;;;;8.88;4.30;;;;;;;;;;5007639;28;20525;-64
2023/04/27 11:16:46;;;;;;;7.07;3.42;;;;;;;;;;5008594;28;20541;-65
2023/04/27 11:19:17;;;;;;;7.90;3.88;;;;;;;;;;4992419;28;20436;-64
2023/04/27 11:21:47;;;;;;;9.20;3.88;;;;;;;;;;4999859;28;20066;-64
2023/04/27 11:24:17;;;;;;;6.97;4.00;;;;;;;;;;4933030;28;20050;-64
2023/04/27 11:26:52;;;;;;;8.18;3.80;;;;;;;;;;4994319;28;20059;-64
2023/04/27 11:29:22;;;;;;;9.95;3.90;;;;;;;;;;5044770;28;20067;-64
2023/04/27 11:31:52;;;;;;;11.15;4.22;;;;;;;;;;5017224;28;20041;-64
2023/04/27 11:34:25;;;;;;;8.55;3.85;;;;;;;;;;5061744;28;20056;-64
2023/04/27 11:36:59;;;;;;;7.65;4.32;;;;;;;;;;5053332;28;20121;-64
2023/04/27 11:39:45;;;;;;;9.40;3.90;;;;;;;;;;5052762;28;20527;-65
2023/04/27 11:42:17;;;;;;;5.85;3.08;;;;;;;;;;5090426;28;20063;-64
2023/04/27 11:45:13;;;;;;;9.20;3.97;;;;;;;;;;5090316;28;20559;-65
2023/04/27 11:47:46;;;;;;;5.72;3.45;;;;;;;;;;5049888;28;20049;-64
2023/04/27 11:50:16;;;;;;;7.00;2.97;;;;;;;;;;5068381;28;20059;-64
2023/04/27 11:52:48;;;;;;;6.45;3.58;;;;;;;;;;5045000;28;20055;-66
2023/04/27 11:55:23;;;;;;;6.70;3.72;;;;;;;;;;5089918;28;20040;-64
2023/04/27 11:57:58;;;;;;;7.05;3.47;;;;;;;;;;5080921;28;20052;-64
2023/04/27 12:00:28;;;;;;;6.80;3.13;;;;;;;;;;4971896;28;20049;-65
2023/04/27 12:02:58;;;;;;;8.82;3.53;;;;;;;;;;5087234;28;20415;-65
2023/04/27 12:05:30;;;;;;;9.63;3.65;;;;;;;;;;5039723;28;20048;-65
2023/04/27 12:08:00;;;;;;;10.38;3.00;;;;;;;;;;5089950;28;20487;-64
2023/04/27 12:10:31;;;;;;;6.22;3.80;;;;;;;;;;5089881;28;20186;-64
2023/04/27 12:13:01;;;;;;;7.03;3.65;;;;;;;;;;5056585;28;20052;-65
2023/04/27 12:15:31;;;;;;;5.53;3.00;;;;;;;;;;5039408;28;20047;-65
2023/04/27 12:18:01;;;;;;;7.22;3.00;;;;;;;;;;5089710;28;20067;-64
2023/04/27 12:20:31;;;;;;;6.40;3.67;;;;;;;;;;5089516;28;20344;-65
2023/04/27 12:23:01;;;;;;;8.50;3.28;;;;;;;;;;5056171;28;20056;-64
2023/04/27 12:25:31;;;;;;;7.07;3.72;;;;;;;;;;5073527;28;20054;-64
2023/04/27 12:28:02;;;;;;;12.65;4.32;;;;;;;;;;5127637;27;20414;-64
2023/04/27 12:30:32;;;;;;;6.85;3.58;;;;;;;;;;5097215;27;20503;-64
2023/04/27 12:33:08;;;;;;;6.75;2.80;;;;;;;;;;5113414;27;20058;-64
2023/04/27 12:35:38;;;;;;;7.95;3.08;;;;;;;;;;5115130;27;20039;-63
2023/04/27 12:38:08;;;;;;;5.10;2.50;;;;;;;;;;5047324;27;20062;-64
2023/04/27 12:40:38;;;;;;;4.22;2.20;;;;;;;;;;5063634;27;20457;-63
2023/04/27 12:43:09;;;;;;;4.40;2.10;;;;;;;;;;5132723;27;20039;-65
2023/04/27 12:45:39;;;;;;;6.22;2.55;;;;;;;;;;5072322;28;20059;-64
2023/04/27 12:48:09;;;;;;;4.95;2.40;;;;;;;;;;5089192;28;20060;-64
2023/04/27 12:50:39;;;;;;;5.85;2.50;;;;;;;;;;5089093;28;20496;-64
2023/04/27 12:53:09;;;;;;;3.80;1.63;;;;;;;;;;5056474;28;20500;-64
2023/04/27 12:55:39;;;;;;;7.75;3.63;;;;;;;;;;5089086;28;20504;-64
2023/04/27 12:58:09;;;;;;;4.93;2.63;;;;;;;;;;5072672;28;20515;-64
2023/04/27 13:00:40;;;;;;;6.65;3.17;;;;;;;;;;5089053;28;20044;-64
2023/04/27 13:03:10;;;;;;;11.15;5.28;;;;;;;;;;5089140;28;20416;-64
2023/04/27 13:05:41;;;;;;;7.03;3.45;;;;;;;;;;5006130;28;20062;-63
2023/04/27 13:08:11;;;;;;;9.30;5.10;;;;;;;;;;5088965;28;20040;-63
2023/04/27 13:10:41;;;;;;;6.63;3.17;;;;;;;;;;5088591;28;20059;-63
2023/04/27 13:13:11;;;;;;;9.38;4.70;;;;;;;;;;5089027;28;20047;-64
2023/04/27 13:15:41;;;;;;;9.18;4.85;;;;;;;;;;5038788;28;20135;-64
2023/04/27 13:18:12;;;;;;;4.78;2.92;;;;;;;;;;5088524;28;20055;-65
2023/04/27 13:20:42;;;;;;;5.57;3.35;;;;;;;;;;5088527;28;20044;-64
2023/04/27 13:23:14;;;;;;;6.45;3.67;;;;;;;;;;5068462;27;20047;-65
2023/04/27 13:25:44;;;;;;;8.23;4.90;;;;;;;;;;5095663;27;20047;-64
2023/04/27 13:28:15;;;;;;;10.80;5.60;;;;;;;;;;5078784;27;20043;-62
2023/04/27 13:30:45;;;;;;;10.82;6.32;;;;;;;;;;5079852;28;20062;-63
2023/04/27 13:33:15;;;;;;;8.80;4.88;;;;;;;;;;5095526;28;20509;-63
2023/04/27 13:35:51;;;;;;;7.05;4.63;;;;;;;;;;5078899;28;20051;-64
2023/04/27 13:38:21;;;;;;;8.55;4.50;;;;;;;;;;5079388;28;20057;-63
2023/04/27 13:40:51;;;;;;;9.48;7.03;;;;;;;;;;5131685;28;20406;-64
2023/04/27 13:43:21;;;;;;;5.72;3.28;;;;;;;;;;5095646;28;20043;-63
2023/04/27 13:45:53;;;;;;;6.68;2.60;;;;;;;;;;5131074;28;20058;-65
2023/04/27 13:48:26;;;;;;;5.45;3.20;;;;;;;;;;5087886;28;20416;-64
2023/04/27 13:50:56;;;;;;;5.80;2.65;;;;;;;;;;5088301;28;20059;-63
2023/04/27 13:53:26;;;;;;;5.32;2.20;;;;;;;;;;5005709;28;20056;-64
2023/04/27 13:55:57;;;;;;;5.40;2.05;;;;;;;;;;5087901;28;20059;-63
2023/04/27 13:58:28;;;;;;;4.40;2.45;;;;;;;;;;5022416;28;20365;-63
2023/04/27 14:00:58;;;;;;;8.95;3.55;;;;;;;;;;5054992;28;20040;-63
2023/04/27 14:03:28;;;;;;;9.05;3.03;;;;;;;;;;5054764;28;20060;-63
2023/04/27 14:06:00;;;;;;;4.55;2.88;;;;;;;;;;5054350;28;20566;-64
2023/04/27 14:08:31;;;;;;;5.80;2.90;;;;;;;;;;5071116;28;20447;-63
2023/04/27 14:11:01;;;;;;;3.92;1.95;;;;;;;;;;5067500;28;20049;-63
2023/04/27 14:13:31;;;;;;;4.93;1.98;;;;;;;;;;5067776;28;20063;-64
2023/04/27 14:16:01;;;;;;;9.15;2.45;;;;;;;;;;5068240;28;20524;-64
2023/04/27 14:18:32;;;;;;;8.15;3.28;;;;;;;;;;5038464;28;20053;-63
2023/04/27 14:21:03;;;;;;;7.13;2.50;;;;;;;;;;5071730;28;20056;-63
2023/04/27 14:23:34;;;;;;;4.30;2.53;;;;;;;;;;5071243;28;20063;-63
2023/04/27 14:26:05;;;;;;;5.80;3.00;;;;;;;;;;5081840;28;20052;-63
2023/04/27 14:28:37;;;;;;;5.95;2.75;;;;;;;;;;5050932;28;20053;-63
2023/04/27 14:31:07;;;;;;;4.72;2.60;;;;;;;;;;5018901;28;20068;-63
2023/04/27 14:33:37;;;;;;;5.82;3.05;;;;;;;;;;5067562;28;20053;-63
2023/04/27 14:36:08;;;;;;;17.63;8.77;;;;;;;;;;5051403;28;20049;-64
2023/04/27 14:38:38;;;;;;;38.28;17.58;;;;;;;;;;5051400;28;20045;-63
2023/04/27 14:41:08;;;;;;;5.65;3.30;;;;;;;;;;5052563;28;20057;-63
2023/04/27 14:43:38;;;;;;;6.40;3.00;;;;;;;;;;5037889;28;20055;-63
2023/04/27 14:46:09;;;;;;;5.78;2.78;;;;;;;;;;5030941;28;20460;-63
2023/04/27 14:48:48;;;;;;;4.10;2.33;;;;;;;;;;5012313;28;20053;-64
2023/04/27 14:51:18;;;;;;;4.95;2.10;;;;;;;;;;5014598;28;20064;-63
2023/04/27 14:53:48;;;;;;;6.70;2.95;;;;;;;;;;4997876;28;21182;-62
2023/04/27 14:56:18;;;;;;;6.53;2.47;;;;;;;;;;4998274;28;20182;-61
2023/04/27 14:58:49;;;;;;;4.53;2.45;;;;;;;;;;4982195;28;20061;-64
2023/04/27 15:01:20;;;;;;;4.30;2.40;;;;;;;;;;4983388;28;20054;-63